createdAt,value
2022-08-10T00:00:51.571Z,72.96
2022-08-10T00:05:56.505Z,72.93
2022-08-10T00:10:58.335Z,72.93
2022-08-10T00:16:00.030Z,72.53
2022-08-10T00:21:01.702Z,72.92
2022-08-10T00:26:04.027Z,73.56
2022-08-10T00:31:05.831Z,73.88
2022-08-10T00:36:07.723Z,74.17
2022-08-10T00:41:09.447Z,75.27
2022-08-10T00:46:11.143Z,75.77
2022-08-10T00:51:12.819Z,77.05
2022-08-10T00:57:12.769Z,77.59
2022-08-10T01:02:08.539Z,77.54
2022-08-10T01:07:26.621Z,76.99
2022-08-10T01:12:50.346Z,77.24
2022-08-10T01:18:00.892Z,76.75
2022-08-10T01:23:21.244Z,77.10
2022-08-10T01:28:29.165Z,77.75
2022-08-10T01:34:02.465Z,78.70
2022-08-10T01:39:04.324Z,78.28
2022-08-10T01:44:11.406Z,78.52
2022-08-10T01:49:14.178Z,78.47
2022-08-10T01:54:19.889Z,78.99
2022-08-10T01:59:23.748Z,79.18
2022-08-10T02:04:26.022Z,79.15
2022-08-10T02:09:32.782Z,79.50
2022-08-10T02:14:40.813Z,79.96
2022-08-10T02:19:43.177Z,79.58
2022-08-10T02:24:44.865Z,79.93
2022-08-10T02:29:49.046Z,79.91
2022-08-10T02:34:51.235Z,80.52
2022-08-10T02:39:53.427Z,80.77
2022-08-10T02:45:23.630Z,80.99
2022-08-10T02:50:32.862Z,81.79
2022-08-10T02:55:42.579Z,82.95
2022-08-10T03:00:47.224Z,83.98
2022-08-10T03:05:50.973Z,84.74
2022-08-10T03:10:52.687Z,84.89
2022-08-10T03:15:54.413Z,85.36
2022-08-10T03:20:56.166Z,85.71
2022-08-10T03:25:57.970Z,86.22
2022-08-10T03:31:00.259Z,85.43
2022-08-10T03:36:40.265Z,84.68
2022-08-10T03:41:36.665Z,84.38
2022-08-10T03:46:40.587Z,84.67
2022-08-10T03:51:42.289Z,85.19
2022-08-10T03:56:44.113Z,85.34
2022-08-10T04:02:52.879Z,84.26
2022-08-10T04:07:07.693Z,83.12
2022-08-10T04:12:09.428Z,82.83
2022-08-10T04:17:14.068Z,82.72
2022-08-10T04:22:20.396Z,83.03
2022-08-10T04:27:22.064Z,83.07
2022-08-10T04:32:24.044Z,82.96
2022-08-10T04:37:25.772Z,83.18
2022-08-10T04:42:27.438Z,82.99
2022-08-10T04:47:57.896Z,82.78
2022-08-10T04:52:51.231Z,82.36
2022-08-10T04:57:53.010Z,82.12
2022-08-10T05:02:54.699Z,82.67
2022-08-10T05:07:57.067Z,82.71
2022-08-10T05:12:58.864Z,82.32
2022-08-10T05:18:06.801Z,82.10
2022-08-10T05:23:11.701Z,82.07
2022-08-10T05:28:13.383Z,81.60
2022-08-10T05:33:15.072Z,81.54
2022-08-10T05:38:17.042Z,81.86
2022-08-10T05:43:20.037Z,81.71
2022-08-10T05:48:41.894Z,82.46
2022-08-10T05:54:03.615Z,82.58
2022-08-10T05:59:05.289Z,82.04
2022-08-10T06:04:06.981Z,82.27
2022-08-10T06:09:08.703Z,82.02
2022-08-10T06:14:29.210Z,82.44
2022-08-10T06:19:31.058Z,83.07
2022-08-10T06:24:36.269Z,82.98
2022-08-10T06:29:38.052Z,82.66
2022-08-10T06:34:41.789Z,82.74
2022-08-10T06:39:44.344Z,81.97
2022-08-10T06:45:04.632Z,81.80
2022-08-10T06:50:10.829Z,80.81
2022-08-10T06:55:16.775Z,79.74
2022-08-10T07:00:20.530Z,78.98
2022-08-10T07:05:27.092Z,78.82
2022-08-10T07:10:46.080Z,78.39
2022-08-10T07:15:59.186Z,77.44
2022-08-10T07:21:02.221Z,77.76
2022-08-10T07:26:03.996Z,77.51
2022-08-10T07:31:35.413Z,76.24
2022-08-10T07:36:27.452Z,75.40
2022-08-10T07:41:31.889Z,74.30
2022-08-10T07:46:33.721Z,74.18
2022-08-10T08:24:04.976Z,68.50
2022-08-10T08:26:37.963Z,67.73
2022-08-10T08:32:01.073Z,66.70
2022-08-10T08:37:01.645Z,65.29
2022-08-10T08:42:35.553Z,63.83
2022-08-10T08:48:04.720Z,63.41
2022-08-10T08:53:22.961Z,61.82
2022-08-10T08:58:58.464Z,60.73
2022-08-10T09:04:34.069Z,59.53
2022-08-10T09:09:38.334Z,59.14
2022-08-10T09:15:40.880Z,59.39
2022-08-10T09:20:48.229Z,56.17
2022-08-10T09:26:07.931Z,56.26
2022-08-10T09:31:21.948Z,55.08
2022-08-10T09:37:04.152Z,55.08
2022-08-10T09:42:16.019Z,53.94
2022-08-10T09:47:58.566Z,54.00
2022-08-10T09:53:04.978Z,52.61
2022-08-10T09:58:15.327Z,54.12
2022-08-10T10:03:25.982Z,49.09
2022-08-10T10:08:36.437Z,52.03
2022-08-10T10:14:02.545Z,50.33
2022-08-10T10:19:25.749Z,50.90
2022-08-10T10:24:43.145Z,53.74
2022-08-10T10:30:06.218Z,50.54
2022-08-10T10:35:29.142Z,50.77
2022-08-10T10:41:07.104Z,49.96
2022-08-10T10:46:16.239Z,49.56
2022-08-10T10:51:53.735Z,49.21
2022-08-10T10:57:17.407Z,48.51
2022-08-10T11:02:32.474Z,46.44
2022-08-10T11:07:36.181Z,47.31
2022-08-10T11:12:57.676Z,46.70
2022-08-10T11:18:36.469Z,45.02
2022-08-10T11:24:48.749Z,43.23
2022-08-10T11:29:35.194Z,43.83
2022-08-10T11:35:34.626Z,45.57
2022-08-10T11:40:43.334Z,45.85
2022-08-10T11:45:52.128Z,43.19
2022-08-10T11:51:01.421Z,44.58
2022-08-10T11:56:03.608Z,41.76
2022-08-10T12:01:13.509Z,41.57
2022-08-10T12:06:28.933Z,40.22
2022-08-10T12:11:35.658Z,39.43
2022-08-10T12:16:39.678Z,38.71
2022-08-10T12:21:45.445Z,37.01
2022-08-10T12:27:00.396Z,35.15
2022-08-10T12:32:11.210Z,33.58
2022-08-10T12:37:33.440Z,33.87
2022-08-10T12:42:43.232Z,33.42
2022-08-10T12:48:31.366Z,31.75
2022-08-10T12:53:51.929Z,32.37
2022-08-10T12:59:00.248Z,30.21
2022-08-10T13:04:22.711Z,30.77
2022-08-10T13:09:25.942Z,30.24
2022-08-10T13:14:56.950Z,28.96
2022-08-10T13:20:08.185Z,28.72
2022-08-10T13:25:16.665Z,28.37
2022-08-10T13:30:37.581Z,28.80
2022-08-10T13:35:40.156Z,28.71
2022-08-10T13:40:41.997Z,27.75
2022-08-10T13:45:49.251Z,27.29
2022-08-10T13:50:52.690Z,26.82
2022-08-10T13:55:56.924Z,26.47
2022-08-10T14:01:00.124Z,25.37
2022-08-10T14:06:01.991Z,25.00
2022-08-10T14:11:10.851Z,24.76
2022-08-10T14:16:14.132Z,25.10
2022-08-10T14:21:16.146Z,26.02
2022-08-10T14:26:26.371Z,25.19
2022-08-10T14:31:33.763Z,23.92
2022-08-10T14:36:56.353Z,24.48
2022-08-10T14:42:00.868Z,23.89
2022-08-10T14:47:52.275Z,23.83
2022-08-10T14:52:30.632Z,24.31
2022-08-10T14:58:19.868Z,23.58
2022-08-10T15:02:57.980Z,23.30
2022-08-10T15:08:00.159Z,22.88
2022-08-10T15:13:03.577Z,22.67
2022-08-10T15:18:06.721Z,22.44
2022-08-10T15:23:30.517Z,22.75
2022-08-10T15:29:22.912Z,22.16
2022-08-10T15:34:14.072Z,22.27
2022-08-10T15:40:21.919Z,23.11
2022-08-10T15:44:41.617Z,22.07
2022-08-10T15:50:03.572Z,22.63
2022-08-10T15:55:43.778Z,22.43
2022-08-10T16:00:39.766Z,23.15
2022-08-10T16:06:02.052Z,23.34
2022-08-10T16:11:05.781Z,23.44
2022-08-10T16:16:11.415Z,24.58
2022-08-10T16:21:19.054Z,23.93
2022-08-10T16:26:28.203Z,23.88
2022-08-10T16:31:33.873Z,23.90
2022-08-10T16:36:42.182Z,24.67
2022-08-10T16:42:03.017Z,23.98
2022-08-10T16:47:06.883Z,24.57
2022-08-10T16:52:08.584Z,25.27
2022-08-10T16:57:10.317Z,25.34
2022-08-10T17:02:16.093Z,25.26
2022-08-10T17:07:18.606Z,25.84
2022-08-10T17:12:24.239Z,26.29
2022-08-10T17:17:30.787Z,26.00
2022-08-10T17:22:36.212Z,26.69
2022-08-10T17:28:03.922Z,26.40
2022-08-10T17:33:11.069Z,26.79
2022-08-10T17:38:20.992Z,26.69
2022-08-10T17:43:58.324Z,26.69
2022-08-10T17:48:45.956Z,27.00
2022-08-10T17:53:49.689Z,27.66
2022-08-10T17:59:01.128Z,27.70
2022-08-10T18:04:05.256Z,27.91
2022-08-10T18:09:11.409Z,28.19
2022-08-10T18:14:13.173Z,29.06
2022-08-10T18:19:14.888Z,29.16
2022-08-10T18:24:17.772Z,29.61
2022-08-10T18:29:21.979Z,30.35
2022-08-10T18:34:23.773Z,31.20
2022-08-10T18:39:30.029Z,31.51
2022-08-10T18:44:35.535Z,32.58
2022-08-10T18:49:37.034Z,32.66
2022-08-10T18:54:44.916Z,33.75
2022-08-10T19:00:08.852Z,33.97
2022-08-10T19:05:36.826Z,34.74
2022-08-10T19:11:02.095Z,35.93
2022-08-10T19:16:10.505Z,36.54
2022-08-10T19:21:19.244Z,37.85
2022-08-10T19:26:42.502Z,38.42
2022-08-10T19:32:40.520Z,39.43
2022-08-10T19:38:14.727Z,39.45
2022-08-10T19:43:59.283Z,39.85
2022-08-10T19:49:19.375Z,40.82
2022-08-10T19:54:53.102Z,42.52
2022-08-10T20:00:17.049Z,42.83
2022-08-10T20:05:33.351Z,45.08
2022-08-10T20:10:57.118Z,47.79
2022-08-10T20:16:02.892Z,48.77
2022-08-10T20:21:14.818Z,48.95
2022-08-10T20:26:23.276Z,48.47
2022-08-10T20:31:29.452Z,49.05
2022-08-10T20:36:33.055Z,49.75
2022-08-10T20:42:03.581Z,49.78
2022-08-10T20:47:24.928Z,50.47
2022-08-10T20:52:26.709Z,50.40
2022-08-10T20:58:04.789Z,51.10
2022-08-10T21:03:31.744Z,51.81
2022-08-10T21:08:59.764Z,52.35
2022-08-10T21:14:13.555Z,52.04
2022-08-10T21:19:30.472Z,52.98
2022-08-10T21:24:55.676Z,53.78
2022-08-10T21:30:09.207Z,54.18
2022-08-10T21:35:40.173Z,55.28
2022-08-10T21:41:19.094Z,56.64
2022-08-10T21:46:58.784Z,56.97
2022-08-10T21:52:32.730Z,59.48
2022-08-10T21:58:27.433Z,60.85
2022-08-10T22:03:47.970Z,61.57
2022-08-10T22:09:18.183Z,61.00
2022-08-10T22:14:52.682Z,61.94
2022-08-10T22:20:24.778Z,63.08
2022-08-10T22:26:26.743Z,63.92
2022-08-10T22:32:16.082Z,65.17
2022-08-10T22:38:07.971Z,67.19
2022-08-10T22:43:36.900Z,67.38
2022-08-10T22:49:01.962Z,66.46
2022-08-10T22:54:52.637Z,65.40
2022-08-10T22:59:54.301Z,65.29
2022-08-10T23:04:58.785Z,66.62
2022-08-10T23:10:03.561Z,66.79
2022-08-10T23:15:25.395Z,68.44
2022-08-10T23:20:27.159Z,69.13
2022-08-10T23:25:31.907Z,69.26
2022-08-10T23:30:36.743Z,69.92
2022-08-10T23:36:31.080Z,70.54
2022-08-10T23:41:11.706Z,71.51
2022-08-10T23:46:13.421Z,71.59
2022-08-10T23:51:16.317Z,70.56
2022-08-10T23:56:20.440Z,71.02
